Angoon, Alaska
Current Conditions -  °F | °C
As of 2:56 PM on Friday 24 Oct 2014 (Local Time) from PAGN Reporting Station
Light Rain Light Rain  
Wind Chill: 42°   Ceiling: Unl
Heat Index: 45°   Visibility: 7mi
Dew Point: 42°   Wind: 6mph
Humidity: 89%   Direction: NA
Pressure: 29.86"   Gusts: NA
Location:  57.5°N, 134.59°W
Report Text: PAGN 242256Z AUTO VRB05KT 7SM -RA FEW027 SCT048 07/06 A2986 RMK AO2 TSNO T00720055 P0000 SLP114 $
Loading
Personal Weather Stations






























Interactive Weather Map
Tropical Storm Tracking
New forecast layout! Learn more

10-Day Weather Forecast

Advertisements
Track Severe Weather on mobile